Time;durP1;ratioP1;P1;durP2;ratioP2;P2;SDS_P1;SDS_P2;PMS_P1;PMS_P2;Temp;Humidity;BMP_temperature;BMP_pressure;BME280_temperature;BME280_humidity;BME280_pressure;Samples;Min_cycle;Max_cycle;Signal;HPM_P1;HPM_P2
2024/01/30 00:01:28;;;;;;;12.85;7.75;;;;;;;3.18;78.39;102420.34;7395296;19;20481;-67
2024/01/30 00:03:59;;;;;;;10.40;6.85;;;;;;;3.15;78.75;102420.25;7398415;19;20070;-67
2024/01/30 00:06:27;;;;;;;11.20;7.25;;;;;;;3.12;78.77;102418.41;7397945;19;20031;-68
2024/01/30 00:08:56;;;;;;;12.60;7.63;;;;;;;3.08;78.82;102411.34;7395210;19;20015;-67
2024/01/30 00:11:25;;;;;;;12.07;7.95;;;;;;;3.06;78.98;102418.22;7397479;19;20015;-67
2024/01/30 00:13:54;;;;;;;12.40;7.55;;;;;;;3.02;78.89;102419.81;7397252;19;20027;-67
2024/01/30 00:16:24;;;;;;;12.50;7.47;;;;;;;2.99;79.02;102411.03;7397754;19;20361;-67
2024/01/30 00:18:52;;;;;;;13.80;8.05;;;;;;;2.95;79.27;102415.22;7397408;19;20015;-67
2024/01/30 00:21:24;;;;;;;13.93;8.30;;;;;;;2.91;79.30;102416.81;7397204;19;20375;-67
2024/01/30 00:23:52;;;;;;;13.55;8.35;;;;;;;2.88;79.43;102418.41;7395314;19;20018;-67
2024/01/30 00:26:21;;;;;;;11.30;8.00;;;;;;;2.84;79.54;102408.75;7396743;19;20477;-67
2024/01/30 00:28:49;;;;;;;21.75;12.63;;;;;;;2.83;79.84;102409.56;7395192;19;20031;-67
2024/01/30 00:31:18;;;;;;;46.38;38.28;;;;;;;2.80;79.67;102404.28;7396541;19;20018;-66
2024/01/30 00:33:46;;;;;;;14.02;10.88;;;;;;;2.80;79.58;102407.75;7396424;19;20019;-67
2024/01/30 00:36:15;;;;;;;14.98;10.20;;;;;;;2.79;79.86;102399.94;7397460;19;20014;-67
2024/01/30 00:38:46;;;;;;;14.57;7.65;;;;;;;2.77;79.54;102394.69;7394418;19;20501;-66
2024/01/30 00:41:14;;;;;;;15.90;8.30;;;;;;;2.76;79.57;102393.78;7396433;19;20496;-67
2024/01/30 00:43:43;;;;;;;14.80;7.80;;;;;;;2.75;79.82;102392.03;7395177;19;20367;-66
2024/01/30 00:46:11;;;;;;;12.52;9.02;;;;;;;2.76;80.01;102391.19;7394667;19;20039;-66
2024/01/30 00:48:40;;;;;;;12.02;8.05;;;;;;;2.77;80.12;102390.38;7394281;19;20495;-67
2024/01/30 00:51:08;;;;;;;10.73;7.93;;;;;;;2.77;80.02;102389.50;7396320;19;20018;-66
2024/01/30 00:53:37;;;;;;;13.30;8.38;;;;;;;2.77;79.59;102392.97;7396139;19;20023;-66
2024/01/30 00:56:08;;;;;;;17.55;9.05;;;;;;;2.79;79.73;102387.84;7396063;19;20018;-67
2024/01/30 00:58:37;;;;;;;10.18;7.30;;;;;;;2.81;79.88;102391.38;7393939;19;20014;-66
2024/01/30 01:01:07;;;;;;;9.52;7.55;;;;;;;2.81;80.10;102391.38;7395909;19;20011;-66
2024/01/30 01:03:43;;;;;;;13.95;8.45;;;;;;;2.82;79.92;102397.44;7393591;19;20014;-66
2024/01/30 01:06:12;;;;;;;13.10;8.05;;;;;;;2.81;80.15;102393.97;7395848;19;20010;-66
2024/01/30 01:08:40;;;;;;;14.30;7.65;;;;;;;2.83;80.21;102394.03;7393617;19;20018;-66
2024/01/30 01:11:11;;;;;;;12.48;8.48;;;;;;;2.84;80.03;102403.56;7395340;19;20500;-67
2024/01/30 01:13:40;;;;;;;11.77;7.25;;;;;;;2.85;80.47;102405.34;7395777;19;20028;-66
2024/01/30 01:16:09;;;;;;;30.15;19.25;;;;;;;2.82;80.48;102397.44;7395596;19;20014;-66
2024/01/30 01:18:37;;;;;;;15.43;12.43;;;;;;;2.86;80.06;102405.41;7393646;19;20031;-66
2024/01/30 01:21:06;;;;;;;13.07;11.55;;;;;;;2.88;80.47;102405.44;7393741;19;20024;-67
2024/01/30 01:23:34;;;;;;;17.60;10.13;;;;;;;2.88;80.24;102401.16;7394017;19;20041;-66
2024/01/30 01:26:03;;;;;;;14.13;9.77;;;;;;;2.90;80.45;102399.50;7393289;19;20414;-66
2024/01/30 01:28:34;;;;;;;12.18;7.97;;;;;;;2.91;79.63;102396.06;7392858;19;20033;-68
2024/01/30 01:31:05;;;;;;;12.25;7.55;;;;;;;2.93;80.29;102398.72;7395315;19;20018;-69
2024/01/30 01:33:35;;;;;;;13.40;7.70;;;;;;;2.95;80.27;102399.66;7395586;19;20034;-69
2024/01/30 01:36:04;;;;;;;14.55;8.18;;;;;;;2.96;80.31;102398.84;7395502;19;20070;-69
2024/01/30 01:38:33;;;;;;;11.98;8.10;;;;;;;2.98;79.67;102397.16;7393205;19;20018;-69
2024/01/30 01:41:01;;;;;;;13.13;7.25;;;;;;;3.00;80.07;102397.25;7394828;19;20011;-68
2024/01/30 01:43:30;;;;;;;9.45;6.50;;;;;;;3.02;80.52;102390.38;7393130;19;20414;-69
2024/01/30 01:46:01;;;;;;;13.93;7.65;;;;;;;3.02;80.13;102391.28;7394752;19;20014;-69
2024/01/30 01:48:29;;;;;;;11.00;6.40;;;;;;;3.03;80.35;102398.25;7392588;19;20498;-69
2024/01/30 01:50:58;;;;;;;13.50;8.27;;;;;;;3.04;80.36;102405.16;7394230;19;20481;-68
2024/01/30 01:53:27;;;;;;;12.40;7.60;;;;;;;3.04;80.10;102399.97;7392597;19;20015;-69
2024/01/30 01:55:57;;;;;;;10.80;7.13;;;;;;;3.04;80.07;102392.22;7394183;19;20400;-68
2024/01/30 01:58:30;;;;;;;13.82;7.68;;;;;;;3.04;79.85;102394.81;7392312;19;20015;-68
2024/01/30 02:01:02;;;;;;;11.63;7.07;;;;;;;3.05;79.60;102395.69;7394402;19;20374;-66
2024/01/30 02:03:31;;;;;;;11.93;7.38;;;;;;;3.06;79.98;102395.75;7393514;19;20014;-67
2024/01/30 02:05:59;;;;;;;12.57;7.53;;;;;;;3.07;79.72;102394.94;7394207;19;20024;-67
2024/01/30 02:08:35;;;;;;;13.02;7.35;;;;;;;3.07;80.08;102388.84;7391149;19;20505;-67
2024/01/30 02:11:12;;;;;;;11.65;7.68;;;;;;;3.09;79.72;102397.56;7391825;19;20013;-67
2024/01/30 02:13:41;;;;;;;10.95;7.47;;;;;;;3.09;79.89;102397.56;7394726;19;20037;-67
2024/01/30 02:16:12;;;;;;;12.25;7.93;;;;;;;3.08;79.65;102391.50;7397241;19;20019;-67
2024/01/30 02:18:45;;;;;;;10.05;6.68;;;;;;;3.09;79.92;102385.47;7399195;19;20029;-67
2024/01/30 02:21:16;;;;;;;10.10;7.00;;;;;;;3.09;79.86;102388.06;7401793;19;20033;-67
2024/01/30 02:23:46;;;;;;;10.38;7.28;;;;;;;3.12;80.19;102389.00;7399592;19;20017;-67
2024/01/30 02:26:14;;;;;;;10.10;7.15;;;;;;;3.10;80.09;102389.84;7400834;19;20491;-67
2024/01/30 02:28:43;;;;;;;13.57;7.80;;;;;;;3.09;80.15;102388.06;7398392;19;20019;-67
2024/01/30 02:31:11;;;;;;;9.90;7.10;;;;;;;3.09;80.35;102393.25;7401007;19;20019;-67
2024/01/30 02:33:40;;;;;;;10.02;7.18;;;;;;;3.08;80.22;102383.72;7397831;19;20079;-67
2024/01/30 02:36:09;;;;;;;11.18;6.68;;;;;;;3.08;80.28;102390.59;7400853;19;20018;-67
2024/01/30 02:38:40;;;;;;;12.10;6.68;;;;;;;3.07;80.41;102388.84;7398074;19;20049;-67
2024/01/30 02:41:08;;;;;;;31.02;18.15;;;;;;;3.05;80.21;102388.78;7397780;19;20477;-67
2024/01/30 02:43:36;;;;;;;107.55;41.20;;;;;;;3.05;80.41;102393.09;7399052;19;20019;-67
2024/01/30 02:46:05;;;;;;;30.67;14.65;;;;;;;3.04;80.62;102391.34;7400080;19;20518;-67
2024/01/30 02:48:33;;;;;;;22.10;13.40;;;;;;;3.02;80.38;102386.09;7397919;19;20030;-66
2024/01/30 02:50:59;;;;;;;29.23;19.45;;;;;;;3.00;80.21;102382.56;7400447;19;20018;-67
2024/01/30 02:53:28;;;;;;;27.02;18.00;;;;;;;3.00;80.54;102389.47;7400277;19;20015;-67
2024/01/30 02:55:59;;;;;;;61.58;37.70;;;;;;;2.99;80.62;102385.97;7400122;19;20018;-68
2024/01/30 02:58:27;;;;;;;53.15;34.58;;;;;;;2.98;81.03;102386.78;7397537;19;20014;-69
2024/01/30 03:00:56;;;;;;;19.95;15.82;;;;;;;2.97;80.99;102386.75;7401043;19;20007;-68
2024/01/30 03:03:24;;;;;;;13.73;9.55;;;;;;;2.95;81.16;102388.44;7398486;19;20010;-68
2024/01/30 03:05:53;;;;;;;14.35;9.18;;;;;;;2.94;80.93;102384.94;7399428;19;20010;-68
2024/01/30 03:08:21;;;;;;;11.35;8.30;;;;;;;2.93;81.14;102385.75;7397530;19;20046;-68
2024/01/30 03:10:50;;;;;;;12.68;8.23;;;;;;;2.91;81.13;102387.44;7397258;19;20589;-68
2024/01/30 03:13:21;;;;;;;17.85;8.45;;;;;;;2.89;80.96;102383.88;7397098;19;20014;-68
2024/01/30 03:15:49;;;;;;;10.32;6.97;;;;;;;2.89;81.10;102377.00;7398020;19;20018;-69
2024/01/30 03:18:18;;;;;;;11.48;7.38;;;;;;;2.87;81.34;102381.25;7399736;19;20379;-68
2024/01/30 03:20:46;;;;;;;13.85;7.53;;;;;;;2.87;80.68;102385.53;7400655;19;20078;-68
2024/01/30 03:23:15;;;;;;;13.35;8.55;;;;;;;2.85;80.52;102379.44;7397034;19;20028;-68
2024/01/30 03:25:43;;;;;;;12.27;7.45;;;;;;;2.84;80.79;102383.72;7398806;19;20031;-68
2024/01/30 03:28:12;;;;;;;13.85;7.97;;;;;;;2.83;80.83;102375.88;7396776;19;20019;-68
2024/01/30 03:30:43;;;;;;;12.48;7.40;;;;;;;2.80;80.99;102366.28;7398903;19;20014;-67
2024/01/30 03:33:11;;;;;;;13.48;8.23;;;;;;;2.79;80.76;102371.41;7399177;19;20011;-67
2024/01/30 03:35:40;;;;;;;12.43;7.85;;;;;;;2.77;81.01;102374.84;7399314;19;20015;-67
2024/01/30 03:38:08;;;;;;;11.50;7.80;;;;;;;2.75;80.91;102371.28;7396920;19;20427;-67
2024/01/30 03:40:36;;;;;;;12.98;7.70;;;;;;;2.75;81.16;102373.88;7398615;19;20014;-67
2024/01/30 03:43:05;;;;;;;13.52;8.52;;;;;;;2.73;80.45;102366.88;7396053;19;20498;-67
2024/01/30 03:45:34;;;;;;;11.02;7.53;;;;;;;2.73;80.82;102372.97;7398238;19;20377;-67
2024/01/30 03:48:05;;;;;;;11.65;7.47;;;;;;;2.73;80.83;102370.38;7396502;19;20027;-67
2024/01/30 03:50:34;;;;;;;12.55;7.80;;;;;;;2.72;80.44;102366.00;7398800;19;20035;-67
2024/01/30 03:53:02;;;;;;;11.60;8.05;;;;;;;2.72;80.93;102362.53;7398014;19;20014;-67
2024/01/30 03:55:31;;;;;;;12.65;8.13;;;;;;;2.71;80.89;102365.97;7398460;19;20099;-67
2024/01/30 03:57:59;;;;;;;17.42;8.10;;;;;;;2.70;81.04;102356.41;7395793;19;20023;-67
2024/01/30 04:00:28;;;;;;;12.55;7.53;;;;;;;2.70;81.00;102364.19;7397821;19;20476;-67
2024/01/30 04:02:56;;;;;;;11.73;8.20;;;;;;;2.68;81.37;102364.13;7397838;19;20354;-67
2024/01/30 04:05:27;;;;;;;12.63;8.35;;;;;;;2.67;81.05;102356.31;7396096;19;20014;-67
2024/01/30 04:07:56;;;;;;;10.85;7.85;;;;;;;2.65;81.41;102358.81;7396303;19;20010;-67
2024/01/30 04:10:24;;;;;;;17.80;8.18;;;;;;;2.65;81.07;102360.53;7395688;19;20032;-67
2024/01/30 04:12:53;;;;;;;13.38;7.90;;;;;;;2.64;81.46;102361.38;7397598;19;20015;-67
2024/01/30 04:15:22;;;;;;;14.05;8.30;;;;;;;2.62;81.45;102353.53;7397365;19;20034;-67
2024/01/30 04:17:57;;;;;;;13.80;8.18;;;;;;;2.60;81.34;102358.69;7396284;19;20031;-68
2024/01/30 04:20:28;;;;;;;15.15;8.63;;;;;;;2.58;81.25;102355.13;7397173;19;20059;-67
2024/01/30 04:22:57;;;;;;;14.23;8.63;;;;;;;2.58;81.16;102357.72;7397698;19;20023;-67
2024/01/30 04:25:25;;;;;;;16.20;11.13;;;;;;;2.58;81.69;102356.84;7396788;19;20514;-68
2024/01/30 04:27:54;;;;;;;14.13;9.07;;;;;;;2.59;81.34;102356.00;7395471;19;20107;-67
2024/01/30 04:30:22;;;;;;;14.07;8.70;;;;;;;2.59;81.67;102353.41;7396979;19;20031;-67
2024/01/30 04:32:50;;;;;;;14.75;8.02;;;;;;;2.59;81.47;102358.59;7396985;19;20022;-67
2024/01/30 04:35:20;;;;;;;12.48;8.13;;;;;;;2.59;81.43;102358.59;7396727;19;20419;-66
2024/01/30 04:37:51;;;;;;;15.73;8.38;;;;;;;2.59;81.37;102353.41;7394512;19;20006;-67
2024/01/30 04:40:20;;;;;;;14.45;8.38;;;;;;;2.57;81.25;102355.94;7395890;19;20030;-67
2024/01/30 04:42:48;;;;;;;15.50;8.85;;;;;;;2.58;81.39;102341.31;7396591;19;20031;-68
2024/01/30 04:45:17;;;;;;;12.77;8.45;;;;;;;2.57;81.20;102352.50;7394294;19;20421;-67
2024/01/30 04:47:46;;;;;;;16.23;8.63;;;;;;;2.58;81.37;102343.91;7394960;19;20482;-67
2024/01/30 04:50:14;;;;;;;13.23;8.60;;;;;;;2.58;81.47;102346.50;7396744;19;20019;-67
2024/01/30 04:52:42;;;;;;;13.52;8.70;;;;;;;2.58;81.52;102346.50;7394322;19;20490;-67
2024/01/30 04:55:14;;;;;;;16.20;9.15;;;;;;;2.58;80.73;102346.50;7396279;19;20010;-67
2024/01/30 04:57:42;;;;;;;13.20;8.35;;;;;;;2.58;81.32;102336.13;7395286;19;20036;-67
2024/01/30 05:00:12;;;;;;;15.40;9.18;;;;;;;2.57;81.47;102348.19;7396297;19;20103;-68
2024/01/30 05:02:41;;;;;;;14.95;9.35;;;;;;;2.58;81.60;102346.50;7396175;19;20018;-68
2024/01/30 05:05:09;;;;;;;19.25;10.35;;;;;;;2.58;80.49;102346.50;7394649;19;20022;-67
2024/01/30 05:07:38;;;;;;;26.33;13.15;;;;;;;2.57;80.96;102345.59;7394504;19;20024;-67
2024/01/30 05:10:08;;;;;;;22.65;12.48;;;;;;;2.56;80.86;102342.94;7394140;19;20014;-67
2024/01/30 05:12:39;;;;;;;19.60;11.60;;;;;;;2.56;80.39;102341.22;7395262;19;20006;-67
2024/01/30 05:15:08;;;;;;;22.63;11.10;;;;;;;2.55;81.26;102338.59;7395776;19;20081;-67
2024/01/30 05:17:36;;;;;;;18.40;9.77;;;;;;;2.55;80.89;102351.53;7395520;19;20028;-67
2024/01/30 05:20:06;;;;;;;16.70;9.75;;;;;;;2.53;81.00;102343.72;7395039;19;20454;-67
2024/01/30 05:22:34;;;;;;;18.08;9.45;;;;;;;2.53;81.04;102342.84;7394566;19;20030;-66
2024/01/30 05:25:03;;;;;;;17.42;10.02;;;;;;;2.54;80.94;102349.78;7393436;19;20028;-67
2024/01/30 05:27:32;;;;;;;15.32;9.40;;;;;;;2.53;81.12;102356.69;7393815;19;20018;-67
2024/01/30 05:30:10;;;;;;;16.25;10.00;;;;;;;2.54;80.70;102358.44;7394794;19;20376;-67
2024/01/30 05:32:39;;;;;;;15.43;9.93;;;;;;;2.53;80.80;102348.91;7392954;19;20361;-68
2024/01/30 05:35:08;;;;;;;15.90;9.93;;;;;;;2.54;81.28;102353.25;7394395;19;20014;-67
2024/01/30 05:37:36;;;;;;;18.05;10.27;;;;;;;2.53;81.47;102354.09;7394615;19;20015;-67
2024/01/30 05:40:05;;;;;;;20.67;9.32;;;;;;;2.54;81.58;102352.34;7392694;19;20014;-67
2024/01/30 05:42:34;;;;;;;15.68;9.15;;;;;;;2.54;81.40;102352.34;7394037;19;20003;-67
2024/01/30 05:45:02;;;;;;;17.02;9.90;;;;;;;2.55;81.10;102356.72;7392340;19;20018;-67
2024/01/30 05:47:33;;;;;;;16.20;10.43;;;;;;;2.54;81.03;102355.84;7393356;19;20014;-67
2024/01/30 05:50:03;;;;;;;18.17;11.07;;;;;;;2.53;81.14;102351.50;7395012;19;20031;-67
2024/01/30 05:52:31;;;;;;;18.20;10.82;;;;;;;2.53;81.15;102353.22;7401606;19;20010;-67
2024/01/30 05:55:00;;;;;;;16.90;10.63;;;;;;;2.50;81.43;102343.59;7400935;19;20078;-67
2024/01/30 05:57:28;;;;;;;17.80;10.27;;;;;;;2.50;81.37;102353.06;7399610;19;20018;-67
2024/01/30 05:59:56;;;;;;;18.27;8.95;;;;;;;2.48;81.52;102347.84;7400174;19;20375;-67
2024/01/30 06:02:25;;;;;;;16.83;9.43;;;;;;;2.47;81.54;102343.47;7397331;19;20019;-68
2024/01/30 06:04:56;;;;;;;17.73;11.02;;;;;;;2.47;81.60;102345.22;7398781;19;20502;-67
2024/01/30 06:07:24;;;;;;;24.80;13.43;;;;;;;2.44;81.81;102346.84;7397409;19;20549;-67
2024/01/30 06:09:53;;;;;;;23.08;12.75;;;;;;;2.43;82.10;102347.66;7397778;19;20027;-69
2024/01/30 06:12:21;;;;;;;19.58;11.98;;;;;;;2.43;81.92;102337.31;7401759;19;20028;-69
2024/01/30 06:14:50;;;;;;;20.13;11.30;;;;;;;2.42;82.23;102337.25;7400965;19;20010;-68
2024/01/30 06:17:18;;;;;;;16.17;11.50;;;;;;;2.41;82.41;102341.56;7399561;19;20015;-67
2024/01/30 06:19:47;;;;;;;18.27;10.48;;;;;;;2.40;81.54;102339.78;7398386;19;20022;-68
2024/01/30 06:22:18;;;;;;;18.75;10.18;;;;;;;2.36;81.87;102335.28;7398624;19;20039;-69
2024/01/30 06:24:48;;;;;;;17.00;10.07;;;;;;;2.40;82.07;102337.19;7396829;19;20034;-68
2024/01/30 06:27:17;;;;;;;17.98;10.40;;;;;;;2.40;81.82;102333.72;7398795;19;20014;-68
2024/01/30 06:29:46;;;;;;;16.60;10.45;;;;;;;2.41;81.87;102338.97;7399819;19;20037;-68
2024/01/30 06:32:14;;;;;;;16.85;10.25;;;;;;;2.41;81.96;102333.78;7399483;19;20070;-68
2024/01/30 06:34:44;;;;;;;17.08;9.52;;;;;;;2.43;82.19;102333.84;7397127;19;20467;-68
2024/01/30 06:37:12;;;;;;;16.33;10.07;;;;;;;2.44;82.33;102333.03;7398767;19;20020;-68
2024/01/30 06:39:50;;;;;;;16.88;11.77;;;;;;;2.44;82.33;102328.72;7399852;19;20099;-68
2024/01/30 06:42:19;;;;;;;17.38;10.93;;;;;;;2.43;82.47;102324.34;7399820;19;20027;-68
2024/01/30 06:44:54;;;;;;;16.85;10.75;;;;;;;2.43;80.95;102326.94;7398785;19;20027;-68
2024/01/30 06:47:22;;;;;;;16.23;10.27;;;;;;;2.43;81.27;102321.75;7398532;19;20035;-66
2024/01/30 06:49:51;;;;;;;17.15;10.63;;;;;;;2.43;81.21;102328.66;7400258;19;20107;-67
2024/01/30 06:52:19;;;;;;;15.05;10.23;;;;;;;2.43;81.25;102332.13;7399499;19;20035;-67
2024/01/30 06:54:50;;;;;;;16.25;10.45;;;;;;;2.41;81.04;102326.03;7399704;19;20024;-67
2024/01/30 06:57:18;;;;;;;15.77;10.35;;;;;;;2.42;81.77;102329.47;7399177;19;20031;-67
2024/01/30 06:59:47;;;;;;;18.80;11.45;;;;;;;2.41;81.41;102328.59;7399609;19;20394;-68
2024/01/30 07:02:15;;;;;;;18.77;11.20;;;;;;;2.43;81.40;102332.13;7396560;19;20019;-67
2024/01/30 07:04:44;;;;;;;18.67;12.13;;;;;;;2.42;81.28;102329.47;7397937;19;20027;-68
2024/01/30 07:07:14;;;;;;;13.73;10.10;;;;;;;2.44;81.54;102331.31;7396632;19;20031;-67
2024/01/30 07:09:43;;;;;;;13.73;9.98;;;;;;;2.46;80.70;102328.75;7396737;19;20010;-68
2024/01/30 07:12:14;;;;;;;19.48;10.13;;;;;;;2.48;81.46;102334.00;7399031;19;20029;-67
2024/01/30 07:14:43;;;;;;;14.95;10.40;;;;;;;2.50;81.37;102335.81;7399058;19;20058;-67
2024/01/30 07:17:11;;;;;;;18.40;10.02;;;;;;;2.52;81.38;102338.47;7397329;19;20032;-67
2024/01/30 07:19:40;;;;;;;16.13;10.95;;;;;;;2.54;81.32;102342.00;7399522;19;20023;-66
2024/01/30 07:22:08;;;;;;;15.40;9.93;;;;;;;2.58;81.50;102347.34;7395678;19;20481;-67
2024/01/30 07:24:37;;;;;;;17.27;10.65;;;;;;;2.61;81.34;102339.69;7397383;19;20074;-67
2024/01/30 07:27:06;;;;;;;17.55;9.57;;;;;;;2.64;81.30;102341.53;7397845;19;20022;-67
2024/01/30 07:29:37;;;;;;;15.00;9.35;;;;;;;2.65;80.09;102337.22;7398665;19;20028;-67
2024/01/30 07:32:06;;;;;;;13.63;9.30;;;;;;;2.70;80.88;102339.13;7395956;19;20457;-67
2024/01/30 07:34:34;;;;;;;15.35;9.43;;;;;;;2.74;81.19;102342.72;7399103;19;20015;-67
2024/01/30 07:37:03;;;;;;;15.35;10.02;;;;;;;2.79;81.04;102346.38;7397975;19;20027;-68
2024/01/30 07:39:31;;;;;;;16.65;9.77;;;;;;;2.83;80.66;102342.19;7397469;19;20545;-67
2024/01/30 07:42:00;;;;;;;14.65;8.80;;;;;;;2.86;80.30;102339.72;7395607;19;20039;-69
2024/01/30 07:44:28;;;;;;;16.58;10.52;;;;;;;2.91;80.27;102335.56;7397832;19;20031;-68
2024/01/30 07:46:59;;;;;;;16.08;9.35;;;;;;;2.96;79.10;102341.81;7397604;19;20010;-68
2024/01/30 07:49:28;;;;;;;18.65;10.27;;;;;;;3.01;80.09;102341.94;7396310;19;20011;-68
2024/01/30 07:51:56;;;;;;;27.38;13.38;;;;;;;3.06;79.83;102335.22;7398590;19;20028;-68
2024/01/30 07:54:25;;;;;;;25.25;13.38;;;;;;;3.10;79.61;102332.78;7398333;19;20019;-69
2024/01/30 07:56:54;;;;;;;17.58;11.00;;;;;;;3.16;79.15;102341.59;7397110;19;20015;-68
2024/01/30 07:59:24;;;;;;;14.05;9.23;;;;;;;3.20;79.00;102338.31;7397514;19;20397;-68
2024/01/30 08:02:08;;;;;;;14.07;9.15;;;;;;;3.24;78.67;102335.84;7398631;19;20013;-68
2024/01/30 08:04:36;;;;;;;15.85;9.35;;;;;;;3.30;78.39;102332.59;7396964;19;20011;-68
2024/01/30 08:07:05;;;;;;;16.55;9.77;;;;;;;3.35;78.90;102335.31;7396907;19;20018;-68
2024/01/30 08:09:34;;;;;;;16.52;9.70;;;;;;;3.38;78.36;102331.13;7394873;19;20014;-68
2024/01/30 08:12:02;;;;;;;14.88;9.70;;;;;;;3.42;78.05;102322.63;7397549;19;20019;-68
2024/01/30 08:14:31;;;;;;;22.48;13.25;;;;;;;3.48;77.76;102327.13;7392700;19;20075;-68
2024/01/30 08:16:59;;;;;;;16.65;9.95;;;;;;;3.52;77.89;102323.78;7396058;19;20031;-68
2024/01/30 08:19:30;;;;;;;15.15;8.90;;;;;;;3.57;76.83;102324.81;7395133;19;20414;-67
2024/01/30 08:21:58;;;;;;;16.08;8.85;;;;;;;3.62;77.40;102324.97;7396117;19;20473;-67
2024/01/30 08:24:27;;;;;;;15.85;9.43;;;;;;;3.67;76.26;102331.19;7396522;19;20089;-68
2024/01/30 08:26:55;;;;;;;18.15;9.60;;;;;;;3.72;76.71;102324.44;7396287;19;20015;-68
2024/01/30 08:29:24;;;;;;;13.50;8.35;;;;;;;3.78;76.58;102323.78;7396813;19;20031;-68
2024/01/30 08:31:53;;;;;;;11.60;8.48;;;;;;;3.83;74.86;102323.91;7396758;19;20011;-68
2024/01/30 08:34:22;;;;;;;13.68;8.27;;;;;;;3.87;75.42;102313.66;7396069;19;20413;-68
2024/01/30 08:36:53;;;;;;;14.05;8.45;;;;;;;3.92;74.43;102314.69;7394556;19;20031;-68
2024/01/30 08:39:21;;;;;;;15.32;8.13;;;;;;;3.98;75.00;102310.50;7395419;19;20063;-68
2024/01/30 08:41:50;;;;;;;13.55;8.80;;;;;;;4.02;72.23;102308.06;7396319;19;20030;-68
2024/01/30 08:44:18;;;;;;;13.52;8.45;;;;;;;4.08;71.58;102305.66;7394104;19;20339;-67
2024/01/30 08:46:48;;;;;;;10.88;8.50;;;;;;;4.14;73.91;102299.75;7394084;19;20013;-67
2024/01/30 08:49:19;;;;;;;13.85;8.55;;;;;;;4.19;73.32;102300.75;7393837;19;20011;-67
2024/01/30 08:51:47;;;;;;;12.40;8.43;;;;;;;4.25;72.38;102300.09;7397114;19;20014;-68
2024/01/30 08:54:18;;;;;;;13.05;8.52;;;;;;;4.31;73.41;102305.47;7395753;19;20082;-67
2024/01/30 08:56:47;;;;;;;12.73;8.23;;;;;;;4.36;73.51;102306.47;7395796;19;20018;-67
2024/01/30 08:59:15;;;;;;;12.18;8.50;;;;;;;4.42;73.31;102312.69;7393646;19;20074;-67
2024/01/30 09:01:44;;;;;;;14.63;9.40;;;;;;;4.46;72.19;102312.81;7395506;19;20031;-67
2024/01/30 09:04:12;;;;;;;16.40;9.20;;;;;;;4.51;73.27;102308.63;7393358;19;20011;-67
2024/01/30 09:06:40;;;;;;;13.82;8.68;;;;;;;4.56;73.22;102306.16;7393261;19;20010;-67
2024/01/30 09:09:09;;;;;;;14.07;8.52;;;;;;;4.60;73.67;102312.31;7392929;19;20006;-67
2024/01/30 09:11:40;;;;;;;14.18;9.85;;;;;;;4.64;72.45;102319.34;7393592;19;20411;-67
2024/01/30 09:14:09;;;;;;;12.85;8.32;;;;;;;4.68;72.83;102322.09;7396002;19;20470;-67
2024/01/30 09:16:37;;;;;;;16.02;8.70;;;;;;;4.68;71.23;102311.69;7393251;19;20031;-68
2024/01/30 09:19:06;;;;;;;16.25;9.15;;;;;;;4.72;71.76;102317.88;7395726;19;20027;-67
2024/01/30 09:21:35;;;;;;;15.68;9.20;;;;;;;4.73;71.86;102312.69;7395496;19;20039;-67
2024/01/30 09:24:05;;;;;;;14.75;9.20;;;;;;;4.73;69.79;102312.69;7392784;19;20037;-67
2024/01/30 09:26:34;;;;;;;12.75;8.52;;;;;;;4.76;71.96;102306.69;7393066;19;20374;-67
2024/01/30 09:29:05;;;;;;;13.82;8.60;;;;;;;4.78;70.93;102307.63;7395451;19;20028;-67
2024/01/30 09:31:33;;;;;;;15.18;9.52;;;;;;;4.81;72.07;102302.50;7395317;19;20097;-67
2024/01/30 09:34:02;;;;;;;13.30;8.90;;;;;;;4.85;72.19;102308.69;7394416;19;20011;-68
2024/01/30 09:36:30;;;;;;;14.20;9.43;;;;;;;4.87;71.98;102307.00;7393862;19;20430;-67
2024/01/30 09:38:58;;;;;;;14.05;8.82;;;;;;;4.86;70.69;102297.44;7392572;19;20022;-67
2024/01/30 09:41:28;;;;;;;12.95;9.25;;;;;;;4.94;71.38;102297.63;7394431;19;20014;-67
2024/01/30 09:43:59;;;;;;;14.73;8.98;;;;;;;4.97;70.90;102300.34;7394016;19;20011;-68
2024/01/30 09:46:32;;;;;;;13.07;9.00;;;;;;;5.00;70.92;102301.28;7393098;19;20006;-68
2024/01/30 09:49:01;;;;;;;13.35;8.57;;;;;;;5.04;71.33;102295.34;7392966;19;20013;-67
2024/01/30 09:51:31;;;;;;;14.95;8.23;;;;;;;5.09;71.42;102291.97;7394605;19;20512;-67
2024/01/30 09:54:00;;;;;;;14.85;8.80;;;;;;;5.14;70.82;102286.03;7394304;19;20027;-67
2024/01/30 09:56:28;;;;;;;16.20;9.38;;;;;;;5.17;70.99;102286.13;7394739;19;20011;-68
2024/01/30 09:58:57;;;;;;;12.60;9.35;;;;;;;5.21;70.45;102276.66;7392523;19;20031;-67
2024/01/30 10:01:26;;;;;;;15.45;7.43;;;;;;;5.26;69.82;102285.47;7393430;19;20082;-69
2024/01/30 10:03:58;;;;;;;12.52;8.63;;;;;;;5.30;68.92;102291.63;7392212;19;20011;-68
2024/01/30 10:06:27;;;;;;;15.77;8.85;;;;;;;5.33;68.96;102281.28;7392628;19;20068;-69
2024/01/30 10:08:56;;;;;;;15.20;8.35;;;;;;;5.37;69.47;102291.81;7391494;19;20010;-69
2024/01/30 10:11:24;;;;;;;12.30;8.20;;;;;;;5.41;70.31;102284.97;7392081;19;20018;-68
2024/01/30 10:13:53;;;;;;;15.32;8.95;;;;;;;5.46;70.29;102282.47;7393872;19;20420;-68
2024/01/30 10:16:21;;;;;;;12.45;8.38;;;;;;;5.50;70.13;102279.13;7390730;19;20032;-68
2024/01/30 10:18:50;;;;;;;12.15;9.02;;;;;;;5.53;70.14;102282.66;7392921;19;20477;-68
2024/01/30 10:21:21;;;;;;;14.13;8.85;;;;;;;5.58;69.62;102272.34;7393801;19;20011;-68
2024/01/30 10:23:49;;;;;;;13.95;8.00;;;;;;;5.62;70.16;102275.91;7390724;19;20014;-68
2024/01/30 10:26:19;;;;;;;14.00;9.23;;;;;;;5.65;69.87;102284.66;7391897;19;20031;-68
2024/01/30 10:28:48;;;;;;;15.32;9.55;;;;;;;5.68;70.08;102279.53;7390958;19;20026;-68
2024/01/30 10:31:20;;;;;;;12.85;8.18;;;;;;;5.70;69.33;102280.44;7392903;19;20014;-68
2024/01/30 10:33:48;;;;;;;13.35;8.43;;;;;;;5.75;69.97;102283.16;7390194;19;20491;-68
2024/01/30 10:36:17;;;;;;;12.73;8.57;;;;;;;5.78;66.65;102284.97;7394166;19;20018;-68
2024/01/30 10:38:52;;;;;;;12.82;8.05;;;;;;;5.80;67.45;102267.63;7398282;19;20469;-68
2024/01/30 10:41:21;;;;;;;;;;;;;;;5.84;67.13;102264.28;7400365;19;20015;-68
2024/01/30 10:44:02;;;;;;;13.82;8.95;;;;;;;5.89;68.02;102265.25;7400055;19;19936;-69
2024/01/30 10:46:34;;;;;;;16.08;8.68;;;;;;;5.93;68.33;102267.06;7398185;19;20007;-69
2024/01/30 10:49:03;;;;;;;15.43;8.52;;;;;;;6.00;69.92;102265.50;7399925;19;20007;-69
2024/01/30 10:51:33;;;;;;;11.82;7.90;;;;;;;6.05;68.79;102263.00;7400654;19;20031;-68
2024/01/30 10:54:07;;;;;;;10.57;7.65;;;;;;;6.11;69.12;102264.00;7399009;19;20071;-69
2024/01/30 10:56:36;;;;;;;;;;;;;;;6.19;66.50;102266.75;7401425;19;20018;-69
2024/01/30 10:59:05;;;;;;;15.55;8.73;;;;;;;6.27;70.07;102260.00;7400924;19;19914;-69
2024/01/30 11:01:34;;;;;;;11.35;8.63;;;;;;;6.34;69.22;102261.00;7399900;19;20018;-68
2024/01/30 11:04:02;;;;;;;14.25;8.90;;;;;;;6.41;69.98;102257.66;7399326;19;20074;-68
2024/01/30 11:06:31;;;;;;;12.02;7.57;;;;;;;6.48;68.28;102256.94;7396493;19;20014;-69
2024/01/30 11:09:12;;;;;;;13.25;7.78;;;;;;;6.54;65.66;102258.78;7399155;19;20011;-69
2024/01/30 11:11:54;;;;;;;14.20;7.75;;;;;;;6.62;65.07;102261.53;7397278;19;20015;-68
2024/01/30 11:14:29;;;;;;;13.20;8.20;;;;;;;6.67;67.96;102250.34;7397424;19;20074;-68
2024/01/30 11:17:00;;;;;;;13.65;8.27;;;;;;;6.75;68.01;102244.38;7396533;19;20407;-67
2024/01/30 11:19:29;;;;;;;12.57;7.78;;;;;;;6.80;67.70;102247.97;7398265;19;20099;-67
2024/01/30 11:21:58;;;;;;;10.70;7.25;;;;;;;6.85;68.32;102248.94;7398417;19;20011;-68
2024/01/30 11:24:30;;;;;;;13.30;8.38;;;;;;;6.92;66.90;102249.91;7397848;19;20021;-67
2024/01/30 11:27:00;;;;;;;12.50;8.10;;;;;;;6.94;64.30;102246.47;7396120;19;20066;-67
2024/01/30 11:29:30;;;;;;;16.00;9.05;;;;;;;7.00;68.13;102246.59;7396388;19;20019;-67
2024/01/30 11:32:00;;;;;;;12.15;7.82;;;;;;;7.06;67.44;102245.78;7398161;19;20010;-68
2024/01/30 11:34:28;;;;;;;14.95;8.50;;;;;;;7.12;67.76;102245.91;7397509;19;20379;-68